Airport View

Enter AWOS ICAO identifier for current METAR.

ex. KFNL

KEQA 261200Z AUTO 17008KT 10SM CLR 21/16 A3005 RMK AO2

26 Jun 2019 12:04

Frequency: 120.875

Phone: 316-322-8095

Other Area AWOS: K3AU - K1K1 - KAAO - KBEC

TAF KIAB 261000Z 2610/2716 18006KT 9999 FEW200 QNH2998INS BECMG 2617/2618 18010G20KT 9999 FEW320 QNH3001INS BECMG 2701/2702 18012KT 9999 SKC QNH3001INS TX31/2620Z TN20/2612Z